Terminal Aerodrome Forecast
Issued by NWS

Home | Current Version | Previous Version | Text Only | Print | Product List | Glossary On
Versions: 1 2 3 4 5 6 7 8 9 10 11 12 13 14
925
FTUS45 KABQ 271139
TAFROW
TAF
KROW 271139Z 2712/2812 21010KT P6SM SCT250
     FM271700 24015G25KT P6SM SCT250
     FM272100 25026G36KT P6SM FEW100
     FM280200 26020G30KT P6SM SCT250
     FM280500 30015G25KT P6SM SCT250=

USA.gov is the U.S. government's official web portal to all federal, state and local government web resources and services.